KBNW

Boone Municipal Airport

Boone, Iowa, USA
METAR KBNW 191155Z AUTO 19009KT 10SM FEW050 OVC070 06/05 A2967 RMK AO2
Observed Flight Rules
Dec-19 @ 11:55 UTC (20 minutes ago) Visual Flight Rules
Wind Visibility Clouds
190° at 9 knots 10 miles
  • Few at 5,000' AGL
  • Overcast at 7,000' AGL
Temperatures Readings
Current 6°C / 43°F
Dewpoint 5°C / 41°F
Humidity 93%
Altimeter 29.67" Hg
Pressure 1005 hPa
Elevation 354
METAR KBNW 191155Z AUTO 19009KT 10SM FEW050 OVC070 06/05 A2967 RMK AO2
Observed Flight Rules
Dec-19 @ 11:55 UTC
(20 minutes ago)
VFR
Wind Visibility
190° at 9 knots 10 miles
Clouds
  • Few at 5,000' AGL
  • Overcast at 7,000' AGL
Temperature Dewpoint
6°C / 43°F 5°C / 41°F
Humidity Altimeter Pressure
93% 29.67" Hg 1005 hPa